sensor_id;sensor_type;location;lat;lon;timestamp;P1;durP1;ratioP1;P2;durP2;ratioP2
71125;SDS011;58785;55.566;38.058;2023-03-23T00:00:59;6.32;;;2.10;;
71125;SDS011;58785;55.566;38.058;2023-03-23T00:03:26;7.32;;;2.15;;
71125;SDS011;58785;55.566;38.058;2023-03-23T00:05:54;5.63;;;1.93;;
71125;SDS011;58785;55.566;38.058;2023-03-23T00:08:27;6.30;;;1.73;;
71125;SDS011;58785;55.566;38.058;2023-03-23T00:10:53;7.30;;;2.00;;
71125;SDS011;58785;55.566;38.058;2023-03-23T00:13:24;4.85;;;1.55;;
71125;SDS011;58785;55.566;38.058;2023-03-23T00:15:51;5.55;;;1.70;;
71125;SDS011;58785;55.566;38.058;2023-03-23T00:18:18;5.97;;;1.63;;
71125;SDS011;58785;55.566;38.058;2023-03-23T00:20:48;5.78;;;1.42;;
71125;SDS011;58785;55.566;38.058;2023-03-23T00:23:24;9.48;;;1.90;;
71125;SDS011;58785;55.566;38.058;2023-03-23T00:25:52;5.10;;;1.63;;
71125;SDS011;58785;55.566;38.058;2023-03-23T00:28:22;6.45;;;1.58;;
71125;SDS011;58785;55.566;38.058;2023-03-23T00:33:26;5.78;;;1.65;;
71125;SDS011;58785;55.566;38.058;2023-03-23T00:35:54;5.50;;;1.80;;
71125;SDS011;58785;55.566;38.058;2023-03-23T00:38:23;7.03;;;1.60;;
71125;SDS011;58785;55.566;38.058;2023-03-23T00:40:50;5.45;;;1.65;;
71125;SDS011;58785;55.566;38.058;2023-03-23T00:43:16;6.37;;;1.63;;
71125;SDS011;58785;55.566;38.058;2023-03-23T00:45:43;5.53;;;1.60;;
71125;SDS011;58785;55.566;38.058;2023-03-23T00:48:10;5.80;;;1.85;;
71125;SDS011;58785;55.566;38.058;2023-03-23T00:50:38;5.40;;;1.95;;
71125;SDS011;58785;55.566;38.058;2023-03-23T00:53:04;6.53;;;1.90;;
71125;SDS011;58785;55.566;38.058;2023-03-23T00:55:30;6.20;;;1.67;;
71125;SDS011;58785;55.566;38.058;2023-03-23T00:57:56;5.00;;;1.65;;
71125;SDS011;58785;55.566;38.058;2023-03-23T01:00:22;5.00;;;1.65;;
71125;SDS011;58785;55.566;38.058;2023-03-23T01:02:48;5.70;;;1.50;;
71125;SDS011;58785;55.566;38.058;2023-03-23T01:05:17;6.45;;;1.50;;
71125;SDS011;58785;55.566;38.058;2023-03-23T01:07:43;6.35;;;1.90;;
71125;SDS011;58785;55.566;38.058;2023-03-23T01:10:12;7.85;;;2.10;;
71125;SDS011;58785;55.566;38.058;2023-03-23T01:12:41;5.32;;;1.70;;
71125;SDS011;58785;55.566;38.058;2023-03-23T01:15:08;6.97;;;1.93;;
71125;SDS011;58785;55.566;38.058;2023-03-23T01:17:38;7.30;;;1.90;;
71125;SDS011;58785;55.566;38.058;2023-03-23T01:20:04;7.03;;;2.00;;
71125;SDS011;58785;55.566;38.058;2023-03-23T01:22:32;7.97;;;1.90;;
71125;SDS011;58785;55.566;38.058;2023-03-23T01:24:57;7.03;;;1.70;;
71125;SDS011;58785;55.566;38.058;2023-03-23T01:27:23;6.43;;;1.60;;
71125;SDS011;58785;55.566;38.058;2023-03-23T01:29:49;8.20;;;1.60;;
71125;SDS011;58785;55.566;38.058;2023-03-23T01:32:15;6.75;;;1.80;;
71125;SDS011;58785;55.566;38.058;2023-03-23T01:34:41;5.88;;;1.60;;
71125;SDS011;58785;55.566;38.058;2023-03-23T01:37:06;6.30;;;1.60;;
71125;SDS011;58785;55.566;38.058;2023-03-23T01:39:32;5.13;;;1.10;;
71125;SDS011;58785;55.566;38.058;2023-03-23T01:41:58;6.40;;;1.55;;
71125;SDS011;58785;55.566;38.058;2023-03-23T01:46:49;5.47;;;1.40;;
71125;SDS011;58785;55.566;38.058;2023-03-23T01:49:16;5.47;;;1.73;;
71125;SDS011;58785;55.566;38.058;2023-03-23T01:51:46;6.97;;;1.73;;
71125;SDS011;58785;55.566;38.058;2023-03-23T01:54:15;5.65;;;1.52;;
71125;SDS011;58785;55.566;38.058;2023-03-23T01:56:50;7.03;;;2.00;;
71125;SDS011;58785;55.566;38.058;2023-03-23T01:59:22;7.83;;;1.70;;
71125;SDS011;58785;55.566;38.058;2023-03-23T02:01:49;7.13;;;1.40;;
71125;SDS011;58785;55.566;38.058;2023-03-23T02:04:17;4.85;;;1.33;;
71125;SDS011;58785;55.566;38.058;2023-03-23T02:06:44;6.88;;;1.70;;
71125;SDS011;58785;55.566;38.058;2023-03-23T02:09:10;5.43;;;1.60;;
71125;SDS011;58785;55.566;38.058;2023-03-23T02:11:42;6.50;;;1.63;;
71125;SDS011;58785;55.566;38.058;2023-03-23T02:14:08;6.07;;;1.73;;
71125;SDS011;58785;55.566;38.058;2023-03-23T02:16:40;6.32;;;1.95;;
71125;SDS011;58785;55.566;38.058;2023-03-23T02:24:52;7.10;;;2.05;;
71125;SDS011;58785;55.566;38.058;2023-03-23T02:41:39;15.02;;;3.05;;
71125;SDS011;58785;55.566;38.058;2023-03-23T02:44:10;12.07;;;3.60;;
71125;SDS011;58785;55.566;38.058;2023-03-23T02:46:38;17.95;;;4.70;;
71125;SDS011;58785;55.566;38.058;2023-03-23T02:49:05;13.37;;;3.63;;
71125;SDS011;58785;55.566;38.058;2023-03-23T02:51:34;18.88;;;4.15;;
71125;SDS011;58785;55.566;38.058;2023-03-23T02:54:00;11.68;;;3.70;;
71125;SDS011;58785;55.566;38.058;2023-03-23T02:56:27;14.02;;;3.35;;
71125;SDS011;58785;55.566;38.058;2023-03-23T02:58:55;8.65;;;2.97;;
71125;SDS011;58785;55.566;38.058;2023-03-23T03:03:58;12.02;;;2.65;;
71125;SDS011;58785;55.566;38.058;2023-03-23T03:06:32;6.40;;;1.85;;
71125;SDS011;58785;55.566;38.058;2023-03-23T03:09:02;8.13;;;2.33;;
71125;SDS011;58785;55.566;38.058;2023-03-23T03:11:33;7.97;;;2.40;;
71125;SDS011;58785;55.566;38.058;2023-03-23T03:14:03;10.57;;;2.30;;
71125;SDS011;58785;55.566;38.058;2023-03-23T03:16:37;6.15;;;2.25;;
71125;SDS011;58785;55.566;38.058;2023-03-23T03:21:44;11.70;;;2.50;;
71125;SDS011;58785;55.566;38.058;2023-03-23T03:24:13;10.88;;;3.00;;
71125;SDS011;58785;55.566;38.058;2023-03-23T03:26:42;13.70;;;2.63;;
71125;SDS011;58785;55.566;38.058;2023-03-23T03:29:13;11.35;;;2.97;;
71125;SDS011;58785;55.566;38.058;2023-03-23T03:31:42;19.98;;;4.30;;
71125;SDS011;58785;55.566;38.058;2023-03-23T03:34:10;13.35;;;3.70;;
71125;SDS011;58785;55.566;38.058;2023-03-23T03:36:46;11.20;;;3.10;;
71125;SDS011;58785;55.566;38.058;2023-03-23T03:39:15;21.53;;;3.60;;
71125;SDS011;58785;55.566;38.058;2023-03-23T03:41:42;21.08;;;3.80;;
71125;SDS011;58785;55.566;38.058;2023-03-23T03:44:09;17.13;;;3.38;;
71125;SDS011;58785;55.566;38.058;2023-03-23T03:46:35;12.98;;;3.72;;
71125;SDS011;58785;55.566;38.058;2023-03-23T03:49:02;11.57;;;3.78;;
71125;SDS011;58785;55.566;38.058;2023-03-23T03:51:29;19.70;;;3.63;;
71125;SDS011;58785;55.566;38.058;2023-03-23T03:53:56;17.65;;;4.10;;
71125;SDS011;58785;55.566;38.058;2023-03-23T03:56:22;15.90;;;5.20;;
71125;SDS011;58785;55.566;38.058;2023-03-23T03:58:48;15.57;;;4.70;;
71125;SDS011;58785;55.566;38.058;2023-03-23T04:01:16;20.17;;;5.13;;
71125;SDS011;58785;55.566;38.058;2023-03-23T04:03:43;14.07;;;3.97;;
71125;SDS011;58785;55.566;38.058;2023-03-23T04:06:09;23.30;;;4.70;;
71125;SDS011;58785;55.566;38.058;2023-03-23T04:08:38;16.15;;;4.18;;
71125;SDS011;58785;55.566;38.058;2023-03-23T04:11:06;9.52;;;3.95;;
71125;SDS011;58785;55.566;38.058;2023-03-23T04:13:32;15.40;;;3.97;;
71125;SDS011;58785;55.566;38.058;2023-03-23T04:15:58;11.40;;;3.80;;
71125;SDS011;58785;55.566;38.058;2023-03-23T04:18:25;11.35;;;3.45;;
71125;SDS011;58785;55.566;38.058;2023-03-23T04:20:51;14.02;;;3.65;;
71125;SDS011;58785;55.566;38.058;2023-03-23T04:23:17;13.20;;;3.97;;
71125;SDS011;58785;55.566;38.058;2023-03-23T04:25:47;9.18;;;2.78;;
71125;SDS011;58785;55.566;38.058;2023-03-23T04:28:14;11.00;;;2.97;;
71125;SDS011;58785;55.566;38.058;2023-03-23T04:30:42;11.15;;;3.22;;
71125;SDS011;58785;55.566;38.058;2023-03-23T04:33:08;10.87;;;2.97;;
71125;SDS011;58785;55.566;38.058;2023-03-23T04:35:39;7.45;;;2.53;;
71125;SDS011;58785;55.566;38.058;2023-03-23T04:38:10;9.30;;;2.28;;
71125;SDS011;58785;55.566;38.058;2023-03-23T04:40:38;7.57;;;2.70;;
71125;SDS011;58785;55.566;38.058;2023-03-23T04:43:05;10.10;;;2.80;;
71125;SDS011;58785;55.566;38.058;2023-03-23T04:45:35;10.83;;;2.93;;
71125;SDS011;58785;55.566;38.058;2023-03-23T04:48:03;9.38;;;3.05;;
71125;SDS011;58785;55.566;38.058;2023-03-23T04:50:31;9.93;;;2.72;;
71125;SDS011;58785;55.566;38.058;2023-03-23T04:53:01;10.18;;;2.28;;
71125;SDS011;58785;55.566;38.058;2023-03-23T04:55:29;7.90;;;2.67;;
71125;SDS011;58785;55.566;38.058;2023-03-23T04:58:03;9.47;;;2.93;;
71125;SDS011;58785;55.566;38.058;2023-03-23T05:00:31;11.63;;;3.20;;
71125;SDS011;58785;55.566;38.058;2023-03-23T05:02:57;10.07;;;3.13;;
71125;SDS011;58785;55.566;38.058;2023-03-23T05:05:24;19.83;;;4.05;;
71125;SDS011;58785;55.566;38.058;2023-03-23T05:07:50;12.80;;;4.35;;
71125;SDS011;58785;55.566;38.058;2023-03-23T05:10:17;15.90;;;4.33;;
71125;SDS011;58785;55.566;38.058;2023-03-23T05:12:43;18.55;;;5.03;;
71125;SDS011;58785;55.566;38.058;2023-03-23T05:15:10;19.17;;;4.07;;
71125;SDS011;58785;55.566;38.058;2023-03-23T05:17:37;16.25;;;3.70;;
71125;SDS011;58785;55.566;38.058;2023-03-23T05:20:05;14.18;;;3.67;;
71125;SDS011;58785;55.566;38.058;2023-03-23T05:22:35;13.27;;;3.70;;
71125;SDS011;58785;55.566;38.058;2023-03-23T05:25:01;10.25;;;3.42;;
71125;SDS011;58785;55.566;38.058;2023-03-23T05:27:29;10.27;;;3.80;;
71125;SDS011;58785;55.566;38.058;2023-03-23T05:29:56;7.67;;;3.03;;
71125;SDS011;58785;55.566;38.058;2023-03-23T05:32:26;10.25;;;3.20;;
71125;SDS011;58785;55.566;38.058;2023-03-23T05:34:56;10.07;;;3.42;;
71125;SDS011;58785;55.566;38.058;2023-03-23T05:37:24;10.05;;;3.72;;
71125;SDS011;58785;55.566;38.058;2023-03-23T05:39:52;10.20;;;3.00;;
71125;SDS011;58785;55.566;38.058;2023-03-23T05:42:22;11.60;;;2.80;;
71125;SDS011;58785;55.566;38.058;2023-03-23T05:44:48;16.20;;;3.22;;
71125;SDS011;58785;55.566;38.058;2023-03-23T05:47:15;10.55;;;3.72;;
71125;SDS011;58785;55.566;38.058;2023-03-23T05:49:41;14.63;;;3.42;;
71125;SDS011;58785;55.566;38.058;2023-03-23T05:52:07;15.68;;;3.50;;
71125;SDS011;58785;55.566;38.058;2023-03-23T05:54:32;16.00;;;3.50;;
71125;SDS011;58785;55.566;38.058;2023-03-23T05:56:59;16.08;;;3.75;;
71125;SDS011;58785;55.566;38.058;2023-03-23T05:59:25;14.23;;;3.78;;
71125;SDS011;58785;55.566;38.058;2023-03-23T06:01:51;13.20;;;4.20;;
71125;SDS011;58785;55.566;38.058;2023-03-23T06:04:19;19.15;;;3.20;;
71125;SDS011;58785;55.566;38.058;2023-03-23T06:06:45;9.10;;;3.40;;
71125;SDS011;58785;55.566;38.058;2023-03-23T06:09:11;10.53;;;3.30;;
71125;SDS011;58785;55.566;38.058;2023-03-23T06:11:37;10.02;;;3.60;;
71125;SDS011;58785;55.566;38.058;2023-03-23T06:14:03;10.20;;;3.63;;
71125;SDS011;58785;55.566;38.058;2023-03-23T06:16:29;8.65;;;3.10;;
71125;SDS011;58785;55.566;38.058;2023-03-23T06:18:54;12.60;;;3.67;;
71125;SDS011;58785;55.566;38.058;2023-03-23T06:21:22;10.45;;;4.05;;
71125;SDS011;58785;55.566;38.058;2023-03-23T06:23:47;11.40;;;3.53;;
71125;SDS011;58785;55.566;38.058;2023-03-23T06:26:14;11.20;;;3.63;;
71125;SDS011;58785;55.566;38.058;2023-03-23T06:28:41;9.50;;;3.35;;
71125;SDS011;58785;55.566;38.058;2023-03-23T06:31:08;12.18;;;3.63;;
71125;SDS011;58785;55.566;38.058;2023-03-23T06:33:38;11.33;;;3.67;;
71125;SDS011;58785;55.566;38.058;2023-03-23T06:36:04;10.85;;;3.85;;
71125;SDS011;58785;55.566;38.058;2023-03-23T06:38:30;10.40;;;3.60;;
71125;SDS011;58785;55.566;38.058;2023-03-23T06:40:56;8.70;;;3.70;;
71125;SDS011;58785;55.566;38.058;2023-03-23T06:43:23;13.20;;;4.27;;
71125;SDS011;58785;55.566;38.058;2023-03-23T06:45:49;11.07;;;3.85;;
71125;SDS011;58785;55.566;38.058;2023-03-23T06:48:16;13.48;;;3.53;;
71125;SDS011;58785;55.566;38.058;2023-03-23T06:50:42;10.68;;;3.67;;
71125;SDS011;58785;55.566;38.058;2023-03-23T06:53:10;9.73;;;3.47;;
71125;SDS011;58785;55.566;38.058;2023-03-23T06:55:36;8.37;;;3.60;;
71125;SDS011;58785;55.566;38.058;2023-03-23T06:58:03;15.95;;;4.32;;
71125;SDS011;58785;55.566;38.058;2023-03-23T07:00:30;10.98;;;3.58;;
71125;SDS011;58785;55.566;38.058;2023-03-23T07:02:56;10.25;;;3.30;;
71125;SDS011;58785;55.566;38.058;2023-03-23T07:05:22;11.43;;;4.00;;
71125;SDS011;58785;55.566;38.058;2023-03-23T07:07:48;10.70;;;3.63;;
71125;SDS011;58785;55.566;38.058;2023-03-23T07:10:13;10.53;;;3.37;;
71125;SDS011;58785;55.566;38.058;2023-03-23T07:12:40;9.73;;;3.20;;
71125;SDS011;58785;55.566;38.058;2023-03-23T07:15:07;9.52;;;3.50;;
71125;SDS011;58785;55.566;38.058;2023-03-23T07:17:36;10.50;;;3.55;;
71125;SDS011;58785;55.566;38.058;2023-03-23T07:20:02;9.03;;;3.33;;
71125;SDS011;58785;55.566;38.058;2023-03-23T07:22:30;8.25;;;2.90;;
71125;SDS011;58785;55.566;38.058;2023-03-23T07:24:55;9.50;;;3.15;;
71125;SDS011;58785;55.566;38.058;2023-03-23T07:27:21;9.77;;;3.57;;
71125;SDS011;58785;55.566;38.058;2023-03-23T07:29:47;14.68;;;3.63;;
71125;SDS011;58785;55.566;38.058;2023-03-23T07:32:13;8.63;;;3.20;;
71125;SDS011;58785;55.566;38.058;2023-03-23T07:34:39;8.23;;;3.00;;
71125;SDS011;58785;55.566;38.058;2023-03-23T07:37:05;8.67;;;3.53;;
71125;SDS011;58785;55.566;38.058;2023-03-23T07:39:31;7.85;;;3.03;;
71125;SDS011;58785;55.566;38.058;2023-03-23T07:41:58;8.82;;;3.50;;
71125;SDS011;58785;55.566;38.058;2023-03-23T07:44:23;8.13;;;3.17;;
71125;SDS011;58785;55.566;38.058;2023-03-23T07:46:49;9.20;;;3.60;;
71125;SDS011;58785;55.566;38.058;2023-03-23T07:49:16;9.53;;;3.50;;
71125;SDS011;58785;55.566;38.058;2023-03-23T07:51:42;9.50;;;3.30;;
71125;SDS011;58785;55.566;38.058;2023-03-23T07:54:08;9.68;;;3.40;;
71125;SDS011;58785;55.566;38.058;2023-03-23T07:56:34;9.63;;;3.50;;
71125;SDS011;58785;55.566;38.058;2023-03-23T07:59:00;8.23;;;3.65;;
71125;SDS011;58785;55.566;38.058;2023-03-23T08:01:28;9.63;;;3.22;;
71125;SDS011;58785;55.566;38.058;2023-03-23T08:03:54;7.75;;;3.30;;
71125;SDS011;58785;55.566;38.058;2023-03-23T08:06:22;9.55;;;3.78;;
71125;SDS011;58785;55.566;38.058;2023-03-23T08:08:51;9.43;;;2.80;;
71125;SDS011;58785;55.566;38.058;2023-03-23T08:11:18;9.52;;;3.38;;
71125;SDS011;58785;55.566;38.058;2023-03-23T08:13:44;8.57;;;3.45;;
71125;SDS011;58785;55.566;38.058;2023-03-23T08:16:10;13.05;;;3.50;;
71125;SDS011;58785;55.566;38.058;2023-03-23T08:18:36;9.35;;;3.80;;
71125;SDS011;58785;55.566;38.058;2023-03-23T08:21:04;8.50;;;3.27;;
71125;SDS011;58785;55.566;38.058;2023-03-23T08:23:31;8.25;;;3.20;;
71125;SDS011;58785;55.566;38.058;2023-03-23T08:25:58;14.05;;;3.47;;
71125;SDS011;58785;55.566;38.058;2023-03-23T08:28:24;10.27;;;3.60;;
71125;SDS011;58785;55.566;38.058;2023-03-23T08:30:50;8.43;;;3.53;;
71125;SDS011;58785;55.566;38.058;2023-03-23T08:33:16;10.73;;;3.77;;
71125;SDS011;58785;55.566;38.058;2023-03-23T08:35:42;8.63;;;3.33;;
71125;SDS011;58785;55.566;38.058;2023-03-23T08:38:11;8.55;;;3.38;;
71125;SDS011;58785;55.566;38.058;2023-03-23T08:40:38;8.43;;;3.60;;
71125;SDS011;58785;55.566;38.058;2023-03-23T08:43:04;7.85;;;3.65;;
71125;SDS011;58785;55.566;38.058;2023-03-23T08:45:30;9.20;;;3.47;;
71125;SDS011;58785;55.566;38.058;2023-03-23T08:47:56;7.77;;;3.57;;
71125;SDS011;58785;55.566;38.058;2023-03-23T08:50:26;8.02;;;2.97;;
71125;SDS011;58785;55.566;38.058;2023-03-23T08:52:55;8.40;;;3.25;;
71125;SDS011;58785;55.566;38.058;2023-03-23T08:55:21;9.73;;;3.90;;
71125;SDS011;58785;55.566;38.058;2023-03-23T08:57:47;8.52;;;2.95;;
71125;SDS011;58785;55.566;38.058;2023-03-23T09:00:14;6.90;;;3.08;;
71125;SDS011;58785;55.566;38.058;2023-03-23T09:02:46;7.65;;;2.90;;
71125;SDS011;58785;55.566;38.058;2023-03-23T09:05:14;8.13;;;3.63;;
71125;SDS011;58785;55.566;38.058;2023-03-23T09:07:42;9.23;;;3.40;;
71125;SDS011;58785;55.566;38.058;2023-03-23T09:10:11;10.77;;;3.30;;
71125;SDS011;58785;55.566;38.058;2023-03-23T09:12:38;8.55;;;3.38;;
71125;SDS011;58785;55.566;38.058;2023-03-23T09:15:05;9.18;;;3.58;;
71125;SDS011;58785;55.566;38.058;2023-03-23T09:17:34;9.90;;;3.30;;
71125;SDS011;58785;55.566;38.058;2023-03-23T09:20:02;9.02;;;3.17;;
71125;SDS011;58785;55.566;38.058;2023-03-23T09:22:32;7.47;;;2.92;;
71125;SDS011;58785;55.566;38.058;2023-03-23T09:24:58;8.23;;;3.28;;
71125;SDS011;58785;55.566;38.058;2023-03-23T09:27:23;9.07;;;3.70;;
71125;SDS011;58785;55.566;38.058;2023-03-23T09:29:50;9.05;;;3.72;;
71125;SDS011;58785;55.566;38.058;2023-03-23T09:32:16;9.00;;;3.58;;
71125;SDS011;58785;55.566;38.058;2023-03-23T09:34:42;8.40;;;3.20;;
71125;SDS011;58785;55.566;38.058;2023-03-23T09:37:07;7.38;;;3.25;;
71125;SDS011;58785;55.566;38.058;2023-03-23T09:39:34;8.35;;;3.42;;
71125;SDS011;58785;55.566;38.058;2023-03-23T09:42:25;10.73;;;3.07;;
71125;SDS011;58785;55.566;38.058;2023-03-23T09:45:02;11.30;;;3.35;;
71125;SDS011;58785;55.566;38.058;2023-03-23T09:50:36;7.57;;;2.90;;
71125;SDS011;58785;55.566;38.058;2023-03-23T09:55:42;7.00;;;2.83;;
71125;SDS011;58785;55.566;38.058;2023-03-23T09:58:22;12.27;;;2.95;;
71125;SDS011;58785;55.566;38.058;2023-03-23T10:03:48;7.97;;;2.65;;
71125;SDS011;58785;55.566;38.058;2023-03-23T10:06:27;7.32;;;2.55;;
71125;SDS011;58785;55.566;38.058;2023-03-23T10:08:54;7.25;;;2.65;;
71125;SDS011;58785;55.566;38.058;2023-03-23T10:14:07;7.60;;;2.80;;
71125;SDS011;58785;55.566;38.058;2023-03-23T10:16:40;7.63;;;2.97;;
71125;SDS011;58785;55.566;38.058;2023-03-23T10:19:22;7.65;;;3.00;;
71125;SDS011;58785;55.566;38.058;2023-03-23T10:22:05;7.07;;;2.88;;
71125;SDS011;58785;55.566;38.058;2023-03-23T10:24:36;7.40;;;3.10;;
71125;SDS011;58785;55.566;38.058;2023-03-23T10:27:23;8.83;;;2.97;;
71125;SDS011;58785;55.566;38.058;2023-03-23T10:32:40;10.02;;;3.53;;
71125;SDS011;58785;55.566;38.058;2023-03-23T10:35:17;9.48;;;3.20;;
71125;SDS011;58785;55.566;38.058;2023-03-23T10:38:06;7.88;;;3.13;;
71125;SDS011;58785;55.566;38.058;2023-03-23T10:40:44;9.17;;;3.60;;
71125;SDS011;58785;55.566;38.058;2023-03-23T10:43:14;9.73;;;3.30;;
71125;SDS011;58785;55.566;38.058;2023-03-23T10:45:40;10.70;;;3.40;;
71125;SDS011;58785;55.566;38.058;2023-03-23T10:48:19;11.32;;;3.40;;
71125;SDS011;58785;55.566;38.058;2023-03-23T10:50:52;9.45;;;3.13;;
71125;SDS011;58785;55.566;38.058;2023-03-23T10:53:43;8.47;;;2.83;;
71125;SDS011;58785;55.566;38.058;2023-03-23T10:56:45;9.27;;;2.95;;
71125;SDS011;58785;55.566;38.058;2023-03-23T11:01:38;7.82;;;3.30;;
71125;SDS011;58785;55.566;38.058;2023-03-23T11:04:15;12.82;;;3.17;;
71125;SDS011;58785;55.566;38.058;2023-03-23T11:06:46;7.63;;;2.90;;
71125;SDS011;58785;55.566;38.058;2023-03-23T11:09:15;6.60;;;2.80;;
71125;SDS011;58785;55.566;38.058;2023-03-23T11:11:50;6.75;;;2.95;;
71125;SDS011;58785;55.566;38.058;2023-03-23T11:16:54;6.93;;;2.78;;
71125;SDS011;58785;55.566;38.058;2023-03-23T11:19:22;6.90;;;2.60;;
71125;SDS011;58785;55.566;38.058;2023-03-23T11:21:52;8.60;;;2.47;;
71125;SDS011;58785;55.566;38.058;2023-03-23T11:24:21;7.70;;;2.70;;
71125;SDS011;58785;55.566;38.058;2023-03-23T11:26:49;7.30;;;2.78;;
71125;SDS011;58785;55.566;38.058;2023-03-23T11:29:20;8.93;;;2.28;;
71125;SDS011;58785;55.566;38.058;2023-03-23T11:32:09;6.03;;;2.23;;
71125;SDS011;58785;55.566;38.058;2023-03-23T11:34:44;7.15;;;2.70;;
71125;SDS011;58785;55.566;38.058;2023-03-23T11:40:01;6.40;;;2.58;;
71125;SDS011;58785;55.566;38.058;2023-03-23T11:45:50;7.80;;;3.00;;
71125;SDS011;58785;55.566;38.058;2023-03-23T11:52:01;9.35;;;2.90;;
71125;SDS011;58785;55.566;38.058;2023-03-23T11:54:50;8.35;;;3.08;;
71125;SDS011;58785;55.566;38.058;2023-03-23T11:57:22;6.82;;;2.80;;
71125;SDS011;58785;55.566;38.058;2023-03-23T11:59:49;8.50;;;3.00;;
71125;SDS011;58785;55.566;38.058;2023-03-23T12:05:30;8.18;;;3.40;;
71125;SDS011;58785;55.566;38.058;2023-03-23T12:14:10;10.98;;;2.65;;
71125;SDS011;58785;55.566;38.058;2023-03-23T12:16:55;6.88;;;2.42;;
71125;SDS011;58785;55.566;38.058;2023-03-23T12:27:58;8.35;;;2.65;;
71125;SDS011;58785;55.566;38.058;2023-03-23T12:41:06;8.60;;;2.30;;
71125;SDS011;58785;55.566;38.058;2023-03-23T12:46:27;7.83;;;2.60;;
71125;SDS011;58785;55.566;38.058;2023-03-23T12:48:56;7.00;;;2.80;;
71125;SDS011;58785;55.566;38.058;2023-03-23T12:59:40;6.77;;;2.30;;
71125;SDS011;58785;55.566;38.058;2023-03-23T13:02:35;14.13;;;2.20;;
71125;SDS011;58785;55.566;38.058;2023-03-23T13:08:10;7.78;;;2.40;;
71125;SDS011;58785;55.566;38.058;2023-03-23T13:10:45;6.10;;;2.17;;
71125;SDS011;58785;55.566;38.058;2023-03-23T13:13:21;6.47;;;2.37;;
71125;SDS011;58785;55.566;38.058;2023-03-23T13:16:10;7.95;;;2.50;;
71125;SDS011;58785;55.566;38.058;2023-03-23T13:21:32;7.03;;;2.05;;
71125;SDS011;58785;55.566;38.058;2023-03-23T13:24:08;8.00;;;2.22;;
71125;SDS011;58785;55.566;38.058;2023-03-23T13:26:39;7.60;;;2.43;;
71125;SDS011;58785;55.566;38.058;2023-03-23T13:31:39;6.57;;;2.60;;
71125;SDS011;58785;55.566;38.058;2023-03-23T13:34:15;8.00;;;2.50;;
71125;SDS011;58785;55.566;38.058;2023-03-23T13:36:43;7.93;;;2.70;;
71125;SDS011;58785;55.566;38.058;2023-03-23T13:39:35;6.23;;;2.27;;
71125;SDS011;58785;55.566;38.058;2023-03-23T13:49:56;8.27;;;2.85;;
71125;SDS011;58785;55.566;38.058;2023-03-23T13:54:50;8.50;;;2.95;;
71125;SDS011;58785;55.566;38.058;2023-03-23T13:57:24;10.15;;;2.83;;
71125;SDS011;58785;55.566;38.058;2023-03-23T13:59:55;8.00;;;2.90;;
71125;SDS011;58785;55.566;38.058;2023-03-23T14:02:30;10.80;;;3.25;;
71125;SDS011;58785;55.566;38.058;2023-03-23T14:06:05;6.23;;;2.33;;
71125;SDS011;58785;55.566;38.058;2023-03-23T14:08:40;6.82;;;2.40;;
71125;SDS011;58785;55.566;38.058;2023-03-23T14:13:44;7.25;;;2.50;;
71125;SDS011;58785;55.566;38.058;2023-03-23T14:16:21;7.15;;;2.13;;
71125;SDS011;58785;55.566;38.058;2023-03-23T14:19:00;9.80;;;2.77;;
71125;SDS011;58785;55.566;38.058;2023-03-23T14:23:53;6.80;;;2.72;;
71125;SDS011;58785;55.566;38.058;2023-03-23T14:26:21;11.82;;;3.60;;
71125;SDS011;58785;55.566;38.058;2023-03-23T14:28:50;10.23;;;2.93;;
71125;SDS011;58785;55.566;38.058;2023-03-23T14:31:19;10.68;;;3.13;;
71125;SDS011;58785;55.566;38.058;2023-03-23T14:33:47;7.47;;;2.90;;
71125;SDS011;58785;55.566;38.058;2023-03-23T14:36:27;7.70;;;2.75;;
71125;SDS011;58785;55.566;38.058;2023-03-23T14:39:02;10.83;;;2.70;;
71125;SDS011;58785;55.566;38.058;2023-03-23T14:41:29;10.25;;;3.28;;
71125;SDS011;58785;55.566;38.058;2023-03-23T14:43:56;8.05;;;2.40;;
71125;SDS011;58785;55.566;38.058;2023-03-23T14:46:22;8.52;;;3.20;;
71125;SDS011;58785;55.566;38.058;2023-03-23T14:48:50;13.80;;;3.97;;
71125;SDS011;58785;55.566;38.058;2023-03-23T14:51:19;10.13;;;3.90;;
71125;SDS011;58785;55.566;38.058;2023-03-23T14:53:46;9.88;;;3.50;;
71125;SDS011;58785;55.566;38.058;2023-03-23T14:59:02;7.85;;;2.70;;
71125;SDS011;58785;55.566;38.058;2023-03-23T15:01:35;7.33;;;2.63;;
71125;SDS011;58785;55.566;38.058;2023-03-23T15:06:43;8.85;;;2.55;;
71125;SDS011;58785;55.566;38.058;2023-03-23T15:09:14;7.82;;;2.75;;
71125;SDS011;58785;55.566;38.058;2023-03-23T15:11:55;10.10;;;3.10;;
71125;SDS011;58785;55.566;38.058;2023-03-23T15:14:28;6.70;;;2.80;;
71125;SDS011;58785;55.566;38.058;2023-03-23T15:17:24;7.40;;;2.78;;
71125;SDS011;58785;55.566;38.058;2023-03-23T15:19:52;7.20;;;2.78;;
71125;SDS011;58785;55.566;38.058;2023-03-23T15:25:04;7.10;;;2.45;;
71125;SDS011;58785;55.566;38.058;2023-03-23T15:27:48;7.53;;;2.50;;
71125;SDS011;58785;55.566;38.058;2023-03-23T15:32:47;12.95;;;2.65;;
71125;SDS011;58785;55.566;38.058;2023-03-23T15:35:18;8.75;;;3.15;;
71125;SDS011;58785;55.566;38.058;2023-03-23T15:38:00;13.75;;;3.30;;
71125;SDS011;58785;55.566;38.058;2023-03-23T15:40:32;13.50;;;2.90;;
71125;SDS011;58785;55.566;38.058;2023-03-23T15:45:53;8.10;;;3.30;;
71125;SDS011;58785;55.566;38.058;2023-03-23T15:48:45;10.13;;;3.38;;
71125;SDS011;58785;55.566;38.058;2023-03-23T15:51:15;8.45;;;3.42;;
71125;SDS011;58785;55.566;38.058;2023-03-23T15:53:42;10.03;;;3.07;;
71125;SDS011;58785;55.566;38.058;2023-03-23T15:56:08;12.20;;;3.10;;
71125;SDS011;58785;55.566;38.058;2023-03-23T15:58:35;15.45;;;3.50;;
71125;SDS011;58785;55.566;38.058;2023-03-23T16:01:03;20.60;;;4.57;;
71125;SDS011;58785;55.566;38.058;2023-03-23T16:03:40;22.60;;;4.10;;
71125;SDS011;58785;55.566;38.058;2023-03-23T16:06:14;17.97;;;4.70;;
71125;SDS011;58785;55.566;38.058;2023-03-23T16:08:41;20.75;;;4.18;;
71125;SDS011;58785;55.566;38.058;2023-03-23T16:11:14;20.77;;;4.85;;
71125;SDS011;58785;55.566;38.058;2023-03-23T16:13:41;12.98;;;5.05;;
71125;SDS011;58785;55.566;38.058;2023-03-23T16:16:14;12.65;;;4.15;;
71125;SDS011;58785;55.566;38.058;2023-03-23T16:18:42;11.43;;;3.80;;
71125;SDS011;58785;55.566;38.058;2023-03-23T16:21:08;8.38;;;3.33;;
71125;SDS011;58785;55.566;38.058;2023-03-23T16:23:34;11.85;;;3.10;;
71125;SDS011;58785;55.566;38.058;2023-03-23T16:26:00;9.68;;;3.00;;
71125;SDS011;58785;55.566;38.058;2023-03-23T16:28:26;8.73;;;3.20;;
71125;SDS011;58785;55.566;38.058;2023-03-23T16:30:52;9.40;;;3.40;;
71125;SDS011;58785;55.566;38.058;2023-03-23T16:33:18;11.50;;;4.17;;
71125;SDS011;58785;55.566;38.058;2023-03-23T16:35:44;13.70;;;4.00;;
71125;SDS011;58785;55.566;38.058;2023-03-23T16:38:14;10.77;;;3.97;;
71125;SDS011;58785;55.566;38.058;2023-03-23T16:40:42;9.40;;;4.30;;
71125;SDS011;58785;55.566;38.058;2023-03-23T16:43:08;12.38;;;4.43;;
71125;SDS011;58785;55.566;38.058;2023-03-23T16:45:35;13.57;;;4.82;;
71125;SDS011;58785;55.566;38.058;2023-03-23T16:48:02;11.43;;;4.00;;
71125;SDS011;58785;55.566;38.058;2023-03-23T16:50:29;16.05;;;3.75;;
71125;SDS011;58785;55.566;38.058;2023-03-23T16:52:55;9.43;;;3.70;;
71125;SDS011;58785;55.566;38.058;2023-03-23T16:55:20;9.02;;;3.10;;
71125;SDS011;58785;55.566;38.058;2023-03-23T16:57:46;9.63;;;3.50;;